sensor_id;sensor_type;location;lat;lon;timestamp;P1;durP1;ratioP1;P2;durP2;ratioP2
562;SDS011;266;49.514;8.294;2023-12-04T00:00:12;11.37;;;8.90;;
562;SDS011;266;49.514;8.294;2023-12-04T00:02:41;16.87;;;10.83;;
562;SDS011;266;49.514;8.294;2023-12-04T00:05:09;15.43;;;11.40;;
562;SDS011;266;49.514;8.294;2023-12-04T00:07:37;11.50;;;9.50;;
562;SDS011;266;49.514;8.294;2023-12-04T00:10:05;18.47;;;11.90;;
562;SDS011;266;49.514;8.294;2023-12-04T00:12:36;13.83;;;10.37;;
562;SDS011;266;49.514;8.294;2023-12-04T00:15:04;17.97;;;13.03;;
562;SDS011;266;49.514;8.294;2023-12-04T00:17:33;13.00;;;9.33;;
562;SDS011;266;49.514;8.294;2023-12-04T00:20:01;15.90;;;11.83;;
562;SDS011;266;49.514;8.294;2023-12-04T00:22:29;16.50;;;11.50;;
562;SDS011;266;49.514;8.294;2023-12-04T00:24:57;13.47;;;10.87;;
562;SDS011;266;49.514;8.294;2023-12-04T00:27:25;15.13;;;11.30;;
562;SDS011;266;49.514;8.294;2023-12-04T00:29:55;16.43;;;11.43;;
562;SDS011;266;49.514;8.294;2023-12-04T00:32:23;12.03;;;10.57;;
562;SDS011;266;49.514;8.294;2023-12-04T00:34:52;16.00;;;10.77;;
562;SDS011;266;49.514;8.294;2023-12-04T00:37:20;15.23;;;10.30;;
562;SDS011;266;49.514;8.294;2023-12-04T00:39:48;19.57;;;14.27;;
562;SDS011;266;49.514;8.294;2023-12-04T00:42:16;14.70;;;10.70;;
562;SDS011;266;49.514;8.294;2023-12-04T00:44:44;12.60;;;11.30;;
562;SDS011;266;49.514;8.294;2023-12-04T00:47:13;13.53;;;9.90;;
562;SDS011;266;49.514;8.294;2023-12-04T00:49:41;10.87;;;8.97;;
562;SDS011;266;49.514;8.294;2023-12-04T00:52:09;19.07;;;11.20;;
562;SDS011;266;49.514;8.294;2023-12-04T00:54:38;12.13;;;10.10;;
562;SDS011;266;49.514;8.294;2023-12-04T00:57:07;15.10;;;11.50;;
562;SDS011;266;49.514;8.294;2023-12-04T00:59:35;14.23;;;12.10;;
562;SDS011;266;49.514;8.294;2023-12-04T01:02:03;12.43;;;9.20;;
562;SDS011;266;49.514;8.294;2023-12-04T01:04:33;11.37;;;10.20;;
562;SDS011;266;49.514;8.294;2023-12-04T01:07:01;15.50;;;10.00;;
562;SDS011;266;49.514;8.294;2023-12-04T01:09:29;13.37;;;9.87;;
562;SDS011;266;49.514;8.294;2023-12-04T01:11:57;11.93;;;10.60;;
562;SDS011;266;49.514;8.294;2023-12-04T01:14:25;16.97;;;10.10;;
562;SDS011;266;49.514;8.294;2023-12-04T01:16:53;17.03;;;10.83;;
562;SDS011;266;49.514;8.294;2023-12-04T01:19:21;11.60;;;9.50;;
562;SDS011;266;49.514;8.294;2023-12-04T01:21:54;12.67;;;9.33;;
562;SDS011;266;49.514;8.294;2023-12-04T01:24:22;14.70;;;9.33;;
562;SDS011;266;49.514;8.294;2023-12-04T01:26:50;15.20;;;12.13;;
562;SDS011;266;49.514;8.294;2023-12-04T01:29:18;12.30;;;11.00;;
562;SDS011;266;49.514;8.294;2023-12-04T01:31:46;14.77;;;10.70;;
562;SDS011;266;49.514;8.294;2023-12-04T01:34:14;13.10;;;10.20;;
562;SDS011;266;49.514;8.294;2023-12-04T01:36:42;12.13;;;9.13;;
562;SDS011;266;49.514;8.294;2023-12-04T01:39:11;11.70;;;8.90;;
562;SDS011;266;49.514;8.294;2023-12-04T01:41:39;10.60;;;9.30;;
562;SDS011;266;49.514;8.294;2023-12-04T01:44:07;12.37;;;9.70;;
562;SDS011;266;49.514;8.294;2023-12-04T01:46:36;13.30;;;9.77;;
562;SDS011;266;49.514;8.294;2023-12-04T01:49:04;12.90;;;8.77;;
562;SDS011;266;49.514;8.294;2023-12-04T01:51:33;13.07;;;8.57;;
562;SDS011;266;49.514;8.294;2023-12-04T01:54:02;13.57;;;9.77;;
562;SDS011;266;49.514;8.294;2023-12-04T01:56:34;11.50;;;10.27;;
562;SDS011;266;49.514;8.294;2023-12-04T01:59:04;11.57;;;10.00;;
562;SDS011;266;49.514;8.294;2023-12-04T02:01:32;11.43;;;9.73;;
562;SDS011;266;49.514;8.294;2023-12-04T02:04:00;13.77;;;9.80;;
562;SDS011;266;49.514;8.294;2023-12-04T02:06:30;12.73;;;10.13;;
562;SDS011;266;49.514;8.294;2023-12-04T02:08:58;12.50;;;9.30;;
562;SDS011;266;49.514;8.294;2023-12-04T02:11:26;11.93;;;8.70;;
562;SDS011;266;49.514;8.294;2023-12-04T02:13:56;12.93;;;8.70;;
562;SDS011;266;49.514;8.294;2023-12-04T02:16:25;12.53;;;8.90;;
562;SDS011;266;49.514;8.294;2023-12-04T02:18:55;16.43;;;11.00;;
562;SDS011;266;49.514;8.294;2023-12-04T02:21:23;12.87;;;11.20;;
562;SDS011;266;49.514;8.294;2023-12-04T02:23:52;12.20;;;9.40;;
562;SDS011;266;49.514;8.294;2023-12-04T02:26:22;12.70;;;9.03;;
562;SDS011;266;49.514;8.294;2023-12-04T02:28:58;12.53;;;10.40;;
562;SDS011;266;49.514;8.294;2023-12-04T02:31:28;11.40;;;9.47;;
562;SDS011;266;49.514;8.294;2023-12-04T02:33:58;16.07;;;9.00;;
562;SDS011;266;49.514;8.294;2023-12-04T02:36:28;14.03;;;11.13;;
562;SDS011;266;49.514;8.294;2023-12-04T02:38:59;13.70;;;8.83;;
562;SDS011;266;49.514;8.294;2023-12-04T02:41:27;13.07;;;8.47;;
562;SDS011;266;49.514;8.294;2023-12-04T02:43:55;12.60;;;10.47;;
562;SDS011;266;49.514;8.294;2023-12-04T02:46:23;10.70;;;7.70;;
562;SDS011;266;49.514;8.294;2023-12-04T02:48:51;12.77;;;9.53;;
562;SDS011;266;49.514;8.294;2023-12-04T02:51:19;11.70;;;9.03;;
562;SDS011;266;49.514;8.294;2023-12-04T02:53:47;11.50;;;9.97;;
562;SDS011;266;49.514;8.294;2023-12-04T02:56:16;11.03;;;8.67;;
562;SDS011;266;49.514;8.294;2023-12-04T02:58:44;15.37;;;11.17;;
562;SDS011;266;49.514;8.294;2023-12-04T03:01:12;11.10;;;9.00;;
562;SDS011;266;49.514;8.294;2023-12-04T03:03:41;9.80;;;8.80;;
562;SDS011;266;49.514;8.294;2023-12-04T03:06:09;10.40;;;9.27;;
562;SDS011;266;49.514;8.294;2023-12-04T03:08:38;12.23;;;8.17;;
562;SDS011;266;49.514;8.294;2023-12-04T03:11:06;13.77;;;11.43;;
562;SDS011;266;49.514;8.294;2023-12-04T03:13:35;12.93;;;9.27;;
562;SDS011;266;49.514;8.294;2023-12-04T03:16:03;11.47;;;7.33;;
562;SDS011;266;49.514;8.294;2023-12-04T03:18:32;11.13;;;8.07;;
562;SDS011;266;49.514;8.294;2023-12-04T03:21:00;12.10;;;10.20;;
562;SDS011;266;49.514;8.294;2023-12-04T03:23:28;9.97;;;8.00;;
562;SDS011;266;49.514;8.294;2023-12-04T03:25:56;8.37;;;7.30;;
562;SDS011;266;49.514;8.294;2023-12-04T03:28:24;11.43;;;9.73;;
562;SDS011;266;49.514;8.294;2023-12-04T03:30:54;13.23;;;8.67;;
562;SDS011;266;49.514;8.294;2023-12-04T03:33:22;11.47;;;8.00;;
562;SDS011;266;49.514;8.294;2023-12-04T03:35:50;11.57;;;10.37;;
562;SDS011;266;49.514;8.294;2023-12-04T03:38:18;12.47;;;8.73;;
562;SDS011;266;49.514;8.294;2023-12-04T03:40:46;13.50;;;9.77;;
562;SDS011;266;49.514;8.294;2023-12-04T03:43:14;12.70;;;10.33;;
562;SDS011;266;49.514;8.294;2023-12-04T03:45:42;12.47;;;8.93;;
562;SDS011;266;49.514;8.294;2023-12-04T03:48:11;11.40;;;9.20;;
562;SDS011;266;49.514;8.294;2023-12-04T03:50:40;14.37;;;9.80;;
562;SDS011;266;49.514;8.294;2023-12-04T03:53:08;13.43;;;10.33;;
562;SDS011;266;49.514;8.294;2023-12-04T03:55:36;11.47;;;8.43;;
562;SDS011;266;49.514;8.294;2023-12-04T03:58:04;12.43;;;9.33;;
562;SDS011;266;49.514;8.294;2023-12-04T04:00:31;15.10;;;11.10;;
562;SDS011;266;49.514;8.294;2023-12-04T04:03:00;13.30;;;8.60;;
562;SDS011;266;49.514;8.294;2023-12-04T04:05:29;15.23;;;9.00;;
562;SDS011;266;49.514;8.294;2023-12-04T04:08:00;14.47;;;9.20;;
562;SDS011;266;49.514;8.294;2023-12-04T04:10:28;11.57;;;8.50;;
562;SDS011;266;49.514;8.294;2023-12-04T04:12:56;11.03;;;9.53;;
562;SDS011;266;49.514;8.294;2023-12-04T04:15:24;11.70;;;10.43;;
562;SDS011;266;49.514;8.294;2023-12-04T04:17:52;13.07;;;9.10;;
562;SDS011;266;49.514;8.294;2023-12-04T04:20:21;13.60;;;11.23;;
562;SDS011;266;49.514;8.294;2023-12-04T04:22:50;10.60;;;8.87;;
562;SDS011;266;49.514;8.294;2023-12-04T04:25:18;11.50;;;8.73;;
562;SDS011;266;49.514;8.294;2023-12-04T04:27:48;14.50;;;9.80;;
562;SDS011;266;49.514;8.294;2023-12-04T04:30:16;12.30;;;9.30;;
562;SDS011;266;49.514;8.294;2023-12-04T04:32:44;12.40;;;9.20;;
562;SDS011;266;49.514;8.294;2023-12-04T04:35:12;15.27;;;9.87;;
562;SDS011;266;49.514;8.294;2023-12-04T04:37:40;11.93;;;8.77;;
562;SDS011;266;49.514;8.294;2023-12-04T04:40:13;11.73;;;9.90;;
562;SDS011;266;49.514;8.294;2023-12-04T04:42:41;12.53;;;10.53;;
562;SDS011;266;49.514;8.294;2023-12-04T04:45:09;10.73;;;9.23;;
562;SDS011;266;49.514;8.294;2023-12-04T04:47:37;12.73;;;9.70;;
562;SDS011;266;49.514;8.294;2023-12-04T04:50:06;13.10;;;8.83;;
562;SDS011;266;49.514;8.294;2023-12-04T04:52:34;12.63;;;9.63;;
562;SDS011;266;49.514;8.294;2023-12-04T04:55:04;16.50;;;9.87;;
562;SDS011;266;49.514;8.294;2023-12-04T04:57:34;13.23;;;9.03;;
562;SDS011;266;49.514;8.294;2023-12-04T05:00:02;10.13;;;8.50;;
562;SDS011;266;49.514;8.294;2023-12-04T05:02:30;13.80;;;9.63;;
562;SDS011;266;49.514;8.294;2023-12-04T05:04:59;13.30;;;10.67;;
562;SDS011;266;49.514;8.294;2023-12-04T05:07:30;12.70;;;10.27;;
562;SDS011;266;49.514;8.294;2023-12-04T05:09:58;9.87;;;8.83;;
562;SDS011;266;49.514;8.294;2023-12-04T05:12:26;10.23;;;9.23;;
562;SDS011;266;49.514;8.294;2023-12-04T05:14:55;13.13;;;8.93;;
562;SDS011;266;49.514;8.294;2023-12-04T05:17:23;14.03;;;10.07;;
562;SDS011;266;49.514;8.294;2023-12-04T05:19:51;12.80;;;8.70;;
562;SDS011;266;49.514;8.294;2023-12-04T05:22:19;11.17;;;8.20;;
562;SDS011;266;49.514;8.294;2023-12-04T05:24:47;11.70;;;9.53;;
562;SDS011;266;49.514;8.294;2023-12-04T05:27:15;18.27;;;11.13;;
562;SDS011;266;49.514;8.294;2023-12-04T05:29:43;12.53;;;9.67;;
562;SDS011;266;49.514;8.294;2023-12-04T05:32:14;13.10;;;9.00;;
562;SDS011;266;49.514;8.294;2023-12-04T05:34:42;12.13;;;8.50;;
562;SDS011;266;49.514;8.294;2023-12-04T05:37:10;26.67;;;9.07;;
562;SDS011;266;49.514;8.294;2023-12-04T05:39:38;15.10;;;9.63;;
562;SDS011;266;49.514;8.294;2023-12-04T05:42:06;11.50;;;8.27;;
562;SDS011;266;49.514;8.294;2023-12-04T05:44:34;11.77;;;9.17;;
562;SDS011;266;49.514;8.294;2023-12-04T05:47:02;9.73;;;7.83;;
562;SDS011;266;49.514;8.294;2023-12-04T05:49:32;13.00;;;8.97;;
562;SDS011;266;49.514;8.294;2023-12-04T05:52:00;13.93;;;10.10;;
562;SDS011;266;49.514;8.294;2023-12-04T05:54:28;10.60;;;8.00;;
562;SDS011;266;49.514;8.294;2023-12-04T05:56:56;14.30;;;9.30;;
562;SDS011;266;49.514;8.294;2023-12-04T05:59:24;10.50;;;7.80;;
562;SDS011;266;49.514;8.294;2023-12-04T06:01:52;10.10;;;8.50;;
562;SDS011;266;49.514;8.294;2023-12-04T06:04:20;9.80;;;7.37;;
562;SDS011;266;49.514;8.294;2023-12-04T06:06:49;9.73;;;8.43;;
562;SDS011;266;49.514;8.294;2023-12-04T06:16:50;9.80;;;6.60;;
562;SDS011;266;49.514;8.294;2023-12-04T09:21:13;10.07;;;7.83;;
562;SDS011;266;49.514;8.294;2023-12-04T09:59:08;15.73;;;6.10;;
562;SDS011;266;49.514;8.294;2023-12-04T10:01:40;8.90;;;6.80;;
562;SDS011;266;49.514;8.294;2023-12-04T10:04:08;9.00;;;5.87;;
562;SDS011;266;49.514;8.294;2023-12-04T10:06:37;9.60;;;7.27;;
562;SDS011;266;49.514;8.294;2023-12-04T10:09:05;10.03;;;7.70;;
562;SDS011;266;49.514;8.294;2023-12-04T10:11:39;8.60;;;5.90;;
562;SDS011;266;49.514;8.294;2023-12-04T10:14:14;8.03;;;6.57;;
562;SDS011;266;49.514;8.294;2023-12-04T10:16:43;8.27;;;6.97;;
562;SDS011;266;49.514;8.294;2023-12-04T10:19:15;9.30;;;7.77;;
562;SDS011;266;49.514;8.294;2023-12-04T10:21:44;5.90;;;5.40;;
562;SDS011;266;49.514;8.294;2023-12-04T10:24:26;10.67;;;7.60;;
562;SDS011;266;49.514;8.294;2023-12-04T10:26:55;8.63;;;6.80;;
562;SDS011;266;49.514;8.294;2023-12-04T10:29:26;10.43;;;7.80;;
562;SDS011;266;49.514;8.294;2023-12-04T10:32:00;6.80;;;6.20;;
562;SDS011;266;49.514;8.294;2023-12-04T10:34:29;9.03;;;7.03;;
562;SDS011;266;49.514;8.294;2023-12-04T10:37:00;7.30;;;5.67;;
562;SDS011;266;49.514;8.294;2023-12-04T10:39:29;6.50;;;5.80;;
562;SDS011;266;49.514;8.294;2023-12-04T10:41:58;7.30;;;6.10;;
562;SDS011;266;49.514;8.294;2023-12-04T10:44:31;6.33;;;5.00;;
562;SDS011;266;49.514;8.294;2023-12-04T10:46:59;12.20;;;7.50;;
562;SDS011;266;49.514;8.294;2023-12-04T10:49:28;8.20;;;6.10;;
562;SDS011;266;49.514;8.294;2023-12-04T10:51:57;8.13;;;5.57;;
562;SDS011;266;49.514;8.294;2023-12-04T10:54:26;8.20;;;6.50;;
562;SDS011;266;49.514;8.294;2023-12-04T10:56:55;5.83;;;5.13;;
562;SDS011;266;49.514;8.294;2023-12-04T10:59:32;7.50;;;5.90;;
562;SDS011;266;49.514;8.294;2023-12-04T11:02:04;9.40;;;6.60;;
562;SDS011;266;49.514;8.294;2023-12-04T11:04:35;9.57;;;5.80;;
562;SDS011;266;49.514;8.294;2023-12-04T11:07:03;8.20;;;6.23;;
562;SDS011;266;49.514;8.294;2023-12-04T11:09:34;7.30;;;5.70;;
562;SDS011;266;49.514;8.294;2023-12-04T11:12:04;7.97;;;6.50;;
562;SDS011;266;49.514;8.294;2023-12-04T11:14:42;7.70;;;5.80;;
562;SDS011;266;49.514;8.294;2023-12-04T11:17:14;8.50;;;5.50;;
562;SDS011;266;49.514;8.294;2023-12-04T11:19:47;6.73;;;5.30;;
562;SDS011;266;49.514;8.294;2023-12-04T11:22:19;6.80;;;5.70;;
562;SDS011;266;49.514;8.294;2023-12-04T11:24:49;10.20;;;6.53;;
562;SDS011;266;49.514;8.294;2023-12-04T11:27:17;9.10;;;6.37;;
562;SDS011;266;49.514;8.294;2023-12-04T11:29:47;7.27;;;6.57;;
562;SDS011;266;49.514;8.294;2023-12-04T11:32:16;6.53;;;5.93;;
562;SDS011;266;49.514;8.294;2023-12-04T11:34:48;7.30;;;5.60;;
562;SDS011;266;49.514;8.294;2023-12-04T11:37:16;7.80;;;5.83;;
562;SDS011;266;49.514;8.294;2023-12-04T11:39:46;9.20;;;6.37;;
562;SDS011;266;49.514;8.294;2023-12-04T11:42:18;8.63;;;5.83;;
562;SDS011;266;49.514;8.294;2023-12-04T11:44:49;9.70;;;6.33;;
562;SDS011;266;49.514;8.294;2023-12-04T11:47:22;7.87;;;6.73;;
562;SDS011;266;49.514;8.294;2023-12-04T11:49:51;11.33;;;7.50;;
562;SDS011;266;49.514;8.294;2023-12-04T11:52:24;7.10;;;6.23;;
562;SDS011;266;49.514;8.294;2023-12-04T11:55:00;7.13;;;5.77;;
562;SDS011;266;49.514;8.294;2023-12-04T11:57:32;7.40;;;5.67;;
562;SDS011;266;49.514;8.294;2023-12-04T12:00:09;9.30;;;5.90;;
562;SDS011;266;49.514;8.294;2023-12-04T12:02:40;7.27;;;5.03;;
562;SDS011;266;49.514;8.294;2023-12-04T12:05:33;11.73;;;7.70;;
562;SDS011;266;49.514;8.294;2023-12-04T12:08:02;7.93;;;5.63;;
562;SDS011;266;49.514;8.294;2023-12-04T12:10:31;6.70;;;5.47;;
562;SDS011;266;49.514;8.294;2023-12-04T12:13:00;9.17;;;6.87;;
562;SDS011;266;49.514;8.294;2023-12-04T12:15:31;10.33;;;7.37;;
562;SDS011;266;49.514;8.294;2023-12-04T12:18:00;8.33;;;6.40;;
562;SDS011;266;49.514;8.294;2023-12-04T12:20:28;7.87;;;6.43;;
562;SDS011;266;49.514;8.294;2023-12-04T12:22:57;9.53;;;7.10;;
562;SDS011;266;49.514;8.294;2023-12-04T12:25:25;8.47;;;6.93;;
562;SDS011;266;49.514;8.294;2023-12-04T12:27:54;13.90;;;6.57;;
562;SDS011;266;49.514;8.294;2023-12-04T12:30:22;7.00;;;6.20;;
562;SDS011;266;49.514;8.294;2023-12-04T12:32:52;8.30;;;6.90;;
562;SDS011;266;49.514;8.294;2023-12-04T12:35:20;8.27;;;7.20;;
562;SDS011;266;49.514;8.294;2023-12-04T12:37:49;7.10;;;6.40;;
562;SDS011;266;49.514;8.294;2023-12-04T12:40:20;11.47;;;8.47;;
562;SDS011;266;49.514;8.294;2023-12-04T12:42:48;8.47;;;7.00;;
562;SDS011;266;49.514;8.294;2023-12-04T12:45:17;13.07;;;9.17;;
562;SDS011;266;49.514;8.294;2023-12-04T12:47:46;9.07;;;7.97;;
562;SDS011;266;49.514;8.294;2023-12-04T12:50:16;11.53;;;8.77;;
562;SDS011;266;49.514;8.294;2023-12-04T12:52:44;8.27;;;7.40;;
562;SDS011;266;49.514;8.294;2023-12-04T12:55:22;11.30;;;8.17;;
562;SDS011;266;49.514;8.294;2023-12-04T12:57:50;8.23;;;6.30;;
562;SDS011;266;49.514;8.294;2023-12-04T13:00:19;9.43;;;6.93;;
562;SDS011;266;49.514;8.294;2023-12-04T13:02:47;7.00;;;6.20;;
562;SDS011;266;49.514;8.294;2023-12-04T13:05:16;7.63;;;6.83;;
562;SDS011;266;49.514;8.294;2023-12-04T13:07:46;13.23;;;8.20;;
562;SDS011;266;49.514;8.294;2023-12-04T13:10:13;9.87;;;7.90;;
562;SDS011;266;49.514;8.294;2023-12-04T13:12:42;10.27;;;8.50;;
562;SDS011;266;49.514;8.294;2023-12-04T13:15:10;9.93;;;7.80;;
562;SDS011;266;49.514;8.294;2023-12-04T13:17:38;10.90;;;7.93;;
562;SDS011;266;49.514;8.294;2023-12-04T13:20:06;12.70;;;8.53;;
562;SDS011;266;49.514;8.294;2023-12-04T13:22:41;9.17;;;7.73;;
562;SDS011;266;49.514;8.294;2023-12-04T13:25:10;12.50;;;9.07;;
562;SDS011;266;49.514;8.294;2023-12-04T13:27:38;10.97;;;8.10;;
562;SDS011;266;49.514;8.294;2023-12-04T13:30:06;10.10;;;9.17;;
562;SDS011;266;49.514;8.294;2023-12-04T13:32:36;9.63;;;7.97;;
562;SDS011;266;49.514;8.294;2023-12-04T13:35:05;9.63;;;7.10;;
562;SDS011;266;49.514;8.294;2023-12-04T13:37:34;12.70;;;7.40;;
562;SDS011;266;49.514;8.294;2023-12-04T13:40:06;11.87;;;10.17;;
562;SDS011;266;49.514;8.294;2023-12-04T13:42:38;9.47;;;7.43;;
562;SDS011;266;49.514;8.294;2023-12-04T13:45:27;8.53;;;6.80;;
562;SDS011;266;49.514;8.294;2023-12-04T13:47:55;9.70;;;8.20;;
562;SDS011;266;49.514;8.294;2023-12-04T13:50:24;9.57;;;8.53;;
562;SDS011;266;49.514;8.294;2023-12-04T13:52:52;9.20;;;8.30;;
562;SDS011;266;49.514;8.294;2023-12-04T13:55:24;9.53;;;7.70;;
562;SDS011;266;49.514;8.294;2023-12-04T13:58:09;11.77;;;8.50;;
562;SDS011;266;49.514;8.294;2023-12-04T14:00:57;11.27;;;8.50;;
562;SDS011;266;49.514;8.294;2023-12-04T14:03:27;14.07;;;9.10;;
562;SDS011;266;49.514;8.294;2023-12-04T14:05:55;11.30;;;8.23;;
562;SDS011;266;49.514;8.294;2023-12-04T14:08:24;8.73;;;7.20;;
562;SDS011;266;49.514;8.294;2023-12-04T14:10:53;9.97;;;8.17;;
562;SDS011;266;49.514;8.294;2023-12-04T14:13:22;11.57;;;9.60;;
562;SDS011;266;49.514;8.294;2023-12-04T14:15:50;12.63;;;9.47;;
562;SDS011;266;49.514;8.294;2023-12-04T14:18:18;14.40;;;8.70;;
562;SDS011;266;49.514;8.294;2023-12-04T14:20:46;10.23;;;8.90;;
562;SDS011;266;49.514;8.294;2023-12-04T14:23:14;10.13;;;9.07;;
562;SDS011;266;49.514;8.294;2023-12-04T14:25:42;10.20;;;8.63;;
562;SDS011;266;49.514;8.294;2023-12-04T14:28:12;9.80;;;7.57;;
562;SDS011;266;49.514;8.294;2023-12-04T14:30:41;10.00;;;8.43;;
562;SDS011;266;49.514;8.294;2023-12-04T14:33:09;13.53;;;10.23;;
562;SDS011;266;49.514;8.294;2023-12-04T14:35:37;9.17;;;8.20;;
562;SDS011;266;49.514;8.294;2023-12-04T14:38:06;10.97;;;8.53;;
562;SDS011;266;49.514;8.294;2023-12-04T14:40:33;15.03;;;9.07;;
562;SDS011;266;49.514;8.294;2023-12-04T14:43:01;11.50;;;8.97;;
562;SDS011;266;49.514;8.294;2023-12-04T14:45:33;13.83;;;10.07;;
562;SDS011;266;49.514;8.294;2023-12-04T14:48:02;15.27;;;11.63;;
562;SDS011;266;49.514;8.294;2023-12-04T14:50:33;10.73;;;9.43;;
562;SDS011;266;49.514;8.294;2023-12-04T14:53:03;10.60;;;8.73;;
562;SDS011;266;49.514;8.294;2023-12-04T14:55:42;12.13;;;8.93;;
562;SDS011;266;49.514;8.294;2023-12-04T14:58:30;12.13;;;8.57;;
562;SDS011;266;49.514;8.294;2023-12-04T15:01:17;11.70;;;9.50;;
562;SDS011;266;49.514;8.294;2023-12-04T15:04:03;11.83;;;8.43;;
562;SDS011;266;49.514;8.294;2023-12-04T15:06:49;9.90;;;9.00;;
562;SDS011;266;49.514;8.294;2023-12-04T15:09:54;10.50;;;8.70;;
562;SDS011;266;49.514;8.294;2023-12-04T15:12:39;9.30;;;8.03;;
562;SDS011;266;49.514;8.294;2023-12-04T15:15:33;13.07;;;8.57;;
562;SDS011;266;49.514;8.294;2023-12-04T15:18:17;14.53;;;10.37;;
562;SDS011;266;49.514;8.294;2023-12-04T15:21:01;13.23;;;10.73;;
562;SDS011;266;49.514;8.294;2023-12-04T15:23:29;14.23;;;11.30;;
562;SDS011;266;49.514;8.294;2023-12-04T15:25:57;12.33;;;9.57;;
562;SDS011;266;49.514;8.294;2023-12-04T15:28:24;12.67;;;10.17;;
562;SDS011;266;49.514;8.294;2023-12-04T15:30:54;16.00;;;11.80;;
562;SDS011;266;49.514;8.294;2023-12-04T15:33:24;14.87;;;11.23;;
562;SDS011;266;49.514;8.294;2023-12-04T15:35:54;12.30;;;10.60;;
562;SDS011;266;49.514;8.294;2023-12-04T15:38:21;15.30;;;11.23;;
562;SDS011;266;49.514;8.294;2023-12-04T15:40:49;11.33;;;10.10;;
562;SDS011;266;49.514;8.294;2023-12-04T15:43:16;14.73;;;9.93;;
562;SDS011;266;49.514;8.294;2023-12-04T15:45:44;12.43;;;10.83;;
562;SDS011;266;49.514;8.294;2023-12-04T15:48:11;12.40;;;11.10;;
562;SDS011;266;49.514;8.294;2023-12-04T15:50:41;14.43;;;11.30;;
562;SDS011;266;49.514;8.294;2023-12-04T15:53:08;14.80;;;12.07;;
562;SDS011;266;49.514;8.294;2023-12-04T15:55:36;13.30;;;10.97;;
562;SDS011;266;49.514;8.294;2023-12-04T15:58:03;14.47;;;10.93;;
562;SDS011;266;49.514;8.294;2023-12-04T16:00:31;19.23;;;12.40;;
562;SDS011;266;49.514;8.294;2023-12-04T16:02:59;15.70;;;12.00;;
562;SDS011;266;49.514;8.294;2023-12-04T16:05:27;13.20;;;10.90;;
562;SDS011;266;49.514;8.294;2023-12-04T16:07:58;13.27;;;10.73;;
562;SDS011;266;49.514;8.294;2023-12-04T16:10:27;13.77;;;10.40;;
562;SDS011;266;49.514;8.294;2023-12-04T16:12:55;12.30;;;10.00;;
562;SDS011;266;49.514;8.294;2023-12-04T16:15:23;11.00;;;9.10;;
562;SDS011;266;49.514;8.294;2023-12-04T16:17:51;13.33;;;10.60;;
562;SDS011;266;49.514;8.294;2023-12-04T16:20:19;11.73;;;10.37;;
562;SDS011;266;49.514;8.294;2023-12-04T16:22:47;12.23;;;9.63;;
562;SDS011;266;49.514;8.294;2023-12-04T16:25:17;13.07;;;10.37;;
562;SDS011;266;49.514;8.294;2023-12-04T16:27:45;10.87;;;9.00;;
562;SDS011;266;49.514;8.294;2023-12-04T16:30:14;13.57;;;11.57;;
562;SDS011;266;49.514;8.294;2023-12-04T16:32:42;17.17;;;12.27;;
562;SDS011;266;49.514;8.294;2023-12-04T16:35:10;15.80;;;11.23;;
562;SDS011;266;49.514;8.294;2023-12-04T16:37:38;14.33;;;12.20;;
562;SDS011;266;49.514;8.294;2023-12-04T16:40:07;13.37;;;10.47;;
562;SDS011;266;49.514;8.294;2023-12-04T16:42:38;16.47;;;13.53;;
562;SDS011;266;49.514;8.294;2023-12-04T16:45:06;12.90;;;11.50;;
562;SDS011;266;49.514;8.294;2023-12-04T16:47:35;12.63;;;11.43;;
562;SDS011;266;49.514;8.294;2023-12-04T16:50:03;15.13;;;11.83;;
562;SDS011;266;49.514;8.294;2023-12-04T16:52:32;18.20;;;12.20;;
562;SDS011;266;49.514;8.294;2023-12-04T16:55:00;15.70;;;12.00;;
562;SDS011;266;49.514;8.294;2023-12-04T16:57:28;15.10;;;10.77;;
562;SDS011;266;49.514;8.294;2023-12-04T16:59:57;13.90;;;11.40;;
562;SDS011;266;49.514;8.294;2023-12-04T17:02:25;14.67;;;11.83;;
562;SDS011;266;49.514;8.294;2023-12-04T17:04:53;16.40;;;12.77;;
562;SDS011;266;49.514;8.294;2023-12-04T17:07:23;13.47;;;11.40;;
562;SDS011;266;49.514;8.294;2023-12-04T17:09:51;20.17;;;13.70;;
562;SDS011;266;49.514;8.294;2023-12-04T17:12:19;14.53;;;12.03;;
562;SDS011;266;49.514;8.294;2023-12-04T17:14:47;14.40;;;12.90;;
562;SDS011;266;49.514;8.294;2023-12-04T17:17:16;14.53;;;13.03;;
562;SDS011;266;49.514;8.294;2023-12-04T17:19:44;20.43;;;14.27;;
562;SDS011;266;49.514;8.294;2023-12-04T17:22:13;16.47;;;14.00;;
562;SDS011;266;49.514;8.294;2023-12-04T17:24:42;20.03;;;13.47;;
562;SDS011;266;49.514;8.294;2023-12-04T17:27:10;16.27;;;14.30;;
562;SDS011;266;49.514;8.294;2023-12-04T17:29:38;13.43;;;12.13;;
562;SDS011;266;49.514;8.294;2023-12-04T17:32:06;13.80;;;12.20;;
562;SDS011;266;49.514;8.294;2023-12-04T17:34:37;15.60;;;12.80;;
562;SDS011;266;49.514;8.294;2023-12-04T17:37:06;18.00;;;12.23;;
562;SDS011;266;49.514;8.294;2023-12-04T17:39:34;20.87;;;13.57;;
562;SDS011;266;49.514;8.294;2023-12-04T17:42:02;13.70;;;12.30;;
562;SDS011;266;49.514;8.294;2023-12-04T17:44:30;14.10;;;11.40;;
562;SDS011;266;49.514;8.294;2023-12-04T17:46:58;13.50;;;12.10;;
562;SDS011;266;49.514;8.294;2023-12-04T17:49:26;15.70;;;10.93;;
562;SDS011;266;49.514;8.294;2023-12-04T17:51:55;15.43;;;12.10;;
562;SDS011;266;49.514;8.294;2023-12-04T17:54:24;14.17;;;11.20;;
562;SDS011;266;49.514;8.294;2023-12-04T17:56:52;16.13;;;12.17;;
562;SDS011;266;49.514;8.294;2023-12-04T17:59:20;12.90;;;11.53;;
562;SDS011;266;49.514;8.294;2023-12-04T18:01:48;14.83;;;13.30;;
562;SDS011;266;49.514;8.294;2023-12-04T18:04:17;12.60;;;11.27;;
562;SDS011;266;49.514;8.294;2023-12-04T18:06:45;15.50;;;10.27;;
562;SDS011;266;49.514;8.294;2023-12-04T18:09:14;11.93;;;9.90;;
562;SDS011;266;49.514;8.294;2023-12-04T18:11:43;15.27;;;10.93;;
562;SDS011;266;49.514;8.294;2023-12-04T18:14:11;19.63;;;12.60;;
562;SDS011;266;49.514;8.294;2023-12-04T18:16:40;16.03;;;12.30;;
562;SDS011;266;49.514;8.294;2023-12-04T18:19:08;17.63;;;14.27;;
562;SDS011;266;49.514;8.294;2023-12-04T18:21:37;19.73;;;14.80;;
562;SDS011;266;49.514;8.294;2023-12-04T18:24:05;16.93;;;14.13;;
562;SDS011;266;49.514;8.294;2023-12-04T18:26:34;15.37;;;13.43;;
562;SDS011;266;49.514;8.294;2023-12-04T18:29:05;17.87;;;13.77;;
562;SDS011;266;49.514;8.294;2023-12-04T18:31:34;15.77;;;13.37;;
562;SDS011;266;49.514;8.294;2023-12-04T18:34:02;17.63;;;14.53;;
562;SDS011;266;49.514;8.294;2023-12-04T18:36:33;19.83;;;14.20;;
562;SDS011;266;49.514;8.294;2023-12-04T18:39:07;16.83;;;13.80;;
562;SDS011;266;49.514;8.294;2023-12-04T18:41:40;17.97;;;15.13;;
562;SDS011;266;49.514;8.294;2023-12-04T18:44:09;18.17;;;12.73;;
562;SDS011;266;49.514;8.294;2023-12-04T18:46:37;24.27;;;15.27;;
562;SDS011;266;49.514;8.294;2023-12-04T18:49:08;19.00;;;14.23;;
562;SDS011;266;49.514;8.294;2023-12-04T18:51:38;19.30;;;16.40;;
562;SDS011;266;49.514;8.294;2023-12-04T18:54:06;17.07;;;14.20;;
562;SDS011;266;49.514;8.294;2023-12-04T18:56:34;18.17;;;15.33;;
562;SDS011;266;49.514;8.294;2023-12-04T18:59:04;16.97;;;14.40;;
562;SDS011;266;49.514;8.294;2023-12-04T19:01:32;17.77;;;16.00;;
562;SDS011;266;49.514;8.294;2023-12-04T19:04:01;18.17;;;15.60;;
562;SDS011;266;49.514;8.294;2023-12-04T19:06:30;16.27;;;13.67;;
562;SDS011;266;49.514;8.294;2023-12-04T19:08:58;19.33;;;13.93;;
562;SDS011;266;49.514;8.294;2023-12-04T19:11:26;14.67;;;13.17;;
562;SDS011;266;49.514;8.294;2023-12-04T19:13:56;18.70;;;12.93;;
562;SDS011;266;49.514;8.294;2023-12-04T19:16:26;17.63;;;13.70;;
562;SDS011;266;49.514;8.294;2023-12-04T19:18:54;12.90;;;10.80;;
562;SDS011;266;49.514;8.294;2023-12-04T19:21:22;11.03;;;9.90;;
562;SDS011;266;49.514;8.294;2023-12-04T19:23:50;13.90;;;10.63;;
562;SDS011;266;49.514;8.294;2023-12-04T19:26:18;11.90;;;9.73;;